»·PEaware :: N135GD KEWR-KJFK

N135GD :: KEWR-KJFK

FLIGHT INFORMATION

Flight Status: Arrived
Operator: Privately registered:
United States
More flights under this callsign
Pilot: Graham D. (41507)
Aircraft: CIRRUS VISIONJET
(SF50)
More flights by this aircraft type
Origin: KEWR Newark Intl
United States
Destination: KJFK Kennedy Intl
United States
More flights between these airports :: More routes between these airports
Route: EWR4 BREZY V39 CMK V419 JUDDS NELIE MAD V1 DPK
File this flight plan on PilotEdge
Remarks:
Altitude:
(Current/Filed)
11,000ft
Speed:
(Current/Filed)
230kts
Departed: 07-Dec-22 12:27 PM
Arrived: 07-Dec-22 01:07 PM
Distance/Time
Traveled:
17nm/0:40
Distance/Time
To Go:
Arrived

Flight Plot

Page will automatically refresh every two minutes.

Flight plan parsing failed; only flown route is shown


Map Options




Map Legend


Flown Route
Filed Route
Departure Airport
Arrival Airport
Navaid (VOR, NDB)
Fix

Horizontal Profiles

Position Reports

Time Latitude Longitude Heading Altitude Ground
Speed
07-Dec-22 11:45 40.705573 -74.170440 3 11ft 0kts
07-Dec-22 11:46 40.705573 -74.170440 3 11ft 0kts
07-Dec-22 11:47 40.705573 -74.170440 3 11ft 0kts
07-Dec-22 11:48 40.705573 -74.170440 3 11ft 0kts
07-Dec-22 11:49 40.705573 -74.170440 3 11ft 0kts
07-Dec-22 11:50 40.705573 -74.170440 3 11ft 0kts
07-Dec-22 11:51 40.705573 -74.170440 3 11ft 0kts
07-Dec-22 11:52 40.705573 -74.170440 3 11ft 0kts
07-Dec-22 11:53 40.705573 -74.170440 3 11ft 0kts
07-Dec-22 11:54 40.705573 -74.170440 3 11ft 0kts
07-Dec-22 11:55 40.705573 -74.170440 3 11ft 0kts
07-Dec-22 11:56 40.705573 -74.170440 3 11ft 0kts
07-Dec-22 11:57 40.705573 -74.170440 3 11ft 0kts
07-Dec-22 11:58 40.705573 -74.170440 3 11ft 0kts
07-Dec-22 11:59 40.705573 -74.170440 3 11ft 0kts
07-Dec-22 12:00 40.705573 -74.170440 3 11ft 0kts
07-Dec-22 12:01 40.705573 -74.170440 3 11ft 0kts
07-Dec-22 12:02 40.705573 -74.170440 3 11ft 0kts
07-Dec-22 12:03 40.705573 -74.170440 3 11ft 0kts
07-Dec-22 12:04 40.705573 -74.170440 3 11ft 0kts
07-Dec-22 12:05 40.705573 -74.170440 3 11ft 0kts
07-Dec-22 12:06 40.705573 -74.170440 3 11ft 0kts
07-Dec-22 12:07 40.705573 -74.170440 3 11ft 0kts
07-Dec-22 12:08 40.705573 -74.170440 3 11ft 0kts
07-Dec-22 12:09 40.705573 -74.170440 3 11ft 0kts
07-Dec-22 12:10 40.705573 -74.170440 3 11ft 0kts
07-Dec-22 12:11 40.705573 -74.170440 3 11ft 0kts
07-Dec-22 12:12 40.705573 -74.170440 3 11ft 0kts
07-Dec-22 12:13 40.705573 -74.170440 3 11ft 0kts
07-Dec-22 12:14 40.705573 -74.170440 3 11ft 0kts
07-Dec-22 12:15 40.705757 -74.170293 85 11ft 3kts
07-Dec-22 12:16 40.705537 -74.169390 131 11ft 0kts
07-Dec-22 12:17 40.703566 -74.168038 177 11ft 13kts
07-Dec-22 12:18 40.703376 -74.172604 274 11ft 16kts
07-Dec-22 12:19 40.703620 -74.178067 275 11ft 13kts
07-Dec-22 12:20 40.703712 -74.179625 269 11ft 0kts
07-Dec-22 12:21 40.703712 -74.179625 269 11ft 0kts
07-Dec-22 12:22 40.703712 -74.179625 269 11ft 0kts
07-Dec-22 12:24 40.703712 -74.179625 269 11ft 0kts
07-Dec-22 12:25 40.703712 -74.179625 269 11ft 0kts
07-Dec-22 12:26 40.703635 -74.180047 229 11ft 7kts
07-Dec-22 12:27 40.701501 -74.160721 94 397ft 119kts
07-Dec-22 12:28 40.727004 -74.115833 53 3019ft 168kts
07-Dec-22 12:29 40.762176 -74.131213 278 6007ft 170kts
07-Dec-22 12:30 40.790881 -74.170524 355 8659ft 200kts
07-Dec-22 12:31 40.847642 -74.166639 356 10931ft 214kts
07-Dec-22 12:32 40.919246 -74.159388 358 11001ft 275kts
07-Dec-22 12:33 40.995547 -74.151577 358 11002ft 283kts
07-Dec-22 12:34 41.075074 -74.143436 358 11002ft 288kts
07-Dec-22 12:35 41.153204 -74.124848 41 11000ft 303kts
07-Dec-22 12:36 41.183427 -74.021411 74 10998ft 303kts
07-Dec-22 12:37 41.207229 -73.914030 75 10998ft 303kts
07-Dec-22 12:38 41.230803 -73.806846 75 10999ft 303kts
07-Dec-22 12:39 41.254363 -73.699331 75 11000ft 303kts
07-Dec-22 12:40 41.277954 -73.592178 70 10997ft 302kts
07-Dec-22 12:41 41.333412 -73.508558 57 11039ft 304kts
07-Dec-22 12:42 41.331375 -73.401085 97 11053ft 296kts
07-Dec-22 12:43 41.328640 -73.291424 96 11044ft 296kts
07-Dec-22 12:44 41.326160 -73.181954 96 11045ft 295kts
07-Dec-22 12:44 41.324027 -73.090965 95 11092ft 296kts
07-Dec-22 12:46 41.320912 -72.963024 95 10736ft 294kts
07-Dec-22 12:47 41.318194 -72.855606 95 10171ft 289kts
07-Dec-22 12:48 41.314847 -72.749051 104 10167ft 286kts
07-Dec-22 12:48 41.269497 -72.723428 224 10181ft 236kts
07-Dec-22 12:49 41.228779 -72.791130 223 10174ft 237kts
07-Dec-22 12:51 41.171877 -72.859786 223 10172ft 237kts
07-Dec-22 12:51 41.130787 -72.908145 223 10173ft 237kts
07-Dec-22 12:52 41.081243 -72.966280 223 10171ft 238kts
07-Dec-22 12:53 41.031762 -73.024270 223 10131ft 237kts
07-Dec-22 12:55 40.973780 -73.092014 223 9537ft 238kts
07-Dec-22 12:55 40.932398 -73.140277 223 8518ft 236kts
07-Dec-22 12:56 40.883654 -73.197030 222 7305ft 232kts
07-Dec-22 12:57 40.836276 -73.255082 241 6077ft 227kts
07-Dec-22 12:58 40.820558 -73.335712 251 5062ft 225kts
07-Dec-22 12:59 40.804238 -73.416747 253 4556ft 225kts
07-Dec-22 13:00 40.787979 -73.497008 252 4050ft 223kts
07-Dec-22 13:01 40.771230 -73.578465 252 3529ft 224kts
07-Dec-22 13:02 40.743659 -73.648488 225 2558ft 177kts
07-Dec-22 13:03 40.705097 -73.691749 219 1613ft 169kts
07-Dec-22 13:04 40.669256 -73.731264 220 675ft 151kts
07-Dec-22 13:05 40.644471 -73.755389 215 62ft 70kts
07-Dec-22 13:06 40.634775 -73.763129 215 11ft 22kts
07-Dec-22 13:07 40.632848 -73.768177 301 8ft 10kts
07-Dec-22 13:08 40.634303 -73.771395 302 9ft 8kts
07-Dec-22 13:09 40.636578 -73.776268 305 11ft 0kts
07-Dec-22 13:10 40.636717 -73.776525 305 11ft 5kts
07-Dec-22 13:11 40.634095 -73.779983 277 8ft 20kts
07-Dec-22 13:12 40.636359 -73.785402 297 8ft 13kts
07-Dec-22 13:13 40.637691 -73.788337 302 10ft 7kts
07-Dec-22 13:14 40.639320 -73.791947 301 10ft 14kts
07-Dec-22 13:15 40.641135 -73.795863 306 10ft 10kts
07-Dec-22 13:16 40.644066 -73.801210 298 11ft 24kts
07-Dec-22 13:17 40.648105 -73.810072 301 11ft 26kts
07-Dec-22 13:18 40.649036 -73.810454 63 11ft 0kts
07-Dec-22 13:19 40.649036 -73.810454 63 11ft 0kts
07-Dec-22 13:20 40.649036 -73.810454 63 11ft 0kts

Navigation Log

Ident Type
Flight plan parsing failed, navigation log unavailable